createdAt,value
2023-01-02T00:01:20.753Z,100657.75
2023-01-02T00:03:47.217Z,100658.38
2023-01-02T00:06:13.639Z,100660.06
2023-01-02T00:08:39.984Z,100654.59
2023-01-02T00:11:06.276Z,100657.97
2023-01-02T00:13:32.609Z,100657.56
2023-01-02T00:15:59.006Z,100647.50
2023-01-02T00:18:25.484Z,100657.34
2023-01-02T00:20:51.821Z,100642.91
2023-01-02T00:23:18.199Z,100636.84
2023-01-02T00:25:44.542Z,100633.06
2023-01-02T00:28:10.923Z,100625.75
2023-01-02T00:30:38.907Z,100632.84
2023-01-02T00:33:05.900Z,100631.56
2023-01-02T00:35:32.481Z,100629.91
2023-01-02T00:37:58.846Z,100625.53
2023-01-02T00:40:25.230Z,100626.56
2023-01-02T00:42:51.611Z,100638.72
2023-01-02T00:45:17.929Z,100629.06
2023-01-02T00:47:44.249Z,100629.91
2023-01-02T00:50:10.582Z,100628.03
2023-01-02T00:52:36.966Z,100626.34
2023-01-02T00:55:03.377Z,100612.53
2023-01-02T00:57:29.691Z,100619.69
2023-01-02T00:59:56.449Z,100617.16
2023-01-02T01:02:22.943Z,100617.78
2023-01-02T01:04:49.362Z,100613.19
2023-01-02T01:07:15.813Z,100616.75
2023-01-02T01:09:42.189Z,100612.13
2023-01-02T01:12:08.726Z,100610.25
2023-01-02T01:14:35.073Z,100612.31
2023-01-02T01:17:01.467Z,100611.50
2023-01-02T01:19:31.611Z,100614.84
2023-01-02T01:21:57.988Z,100601.03
2023-01-02T01:24:24.376Z,100614.84
2023-01-02T01:26:50.778Z,100612.75
2023-01-02T01:29:17.125Z,100618.19
2023-01-02T01:31:43.532Z,100625.94
2023-01-02T01:34:11.863Z,100626.97
2023-01-02T01:36:38.214Z,100625.94
2023-01-02T01:39:04.712Z,100619.66
2023-01-02T01:41:31.111Z,100620.28
2023-01-02T01:43:58.575Z,100620.50
2023-01-02T01:46:24.941Z,100616.06
2023-01-02T01:49:09.628Z,100623.22
2023-01-02T01:51:38.652Z,100625.50
2023-01-02T01:54:10.390Z,100629.69
2023-01-02T01:56:39.232Z,100631.56
2023-01-02T01:59:07.074Z,100628.84
2023-01-02T02:01:33.669Z,100626.75
2023-01-02T02:04:01.017Z,100632.78
2023-01-02T02:06:28.331Z,100641.16
2023-01-02T02:08:57.593Z,100639.28
2023-01-02T02:11:24.311Z,100633.44
2023-01-02T02:13:50.778Z,100632.78
2023-01-02T02:16:17.347Z,100639.94
2023-01-02T02:18:43.865Z,100635.31
2023-01-02T02:21:13.259Z,100640.97
2023-01-02T02:23:58.373Z,100643.69
2023-01-02T02:26:33.839Z,100632.78
2023-01-02T02:29:00.105Z,100627.78
2023-01-02T02:31:45.339Z,100635.94
2023-01-02T02:34:24.499Z,100625.28
2023-01-02T02:36:57.793Z,100626.53
2023-01-02T02:39:24.071Z,100631.78
2023-01-02T02:42:00.648Z,100626.31
2023-01-02T02:44:30.056Z,100629.03
2023-01-02T02:46:59.780Z,100629.03
2023-01-02T02:49:35.203Z,100613.97
2023-01-02T02:52:20.532Z,100621.09
2023-01-02T02:54:55.164Z,100624.03
2023-01-02T02:57:22.229Z,100615.88
2023-01-02T02:59:48.743Z,100615.22
2023-01-02T03:02:16.144Z,100601.25
2023-01-02T03:04:44.400Z,100606.47
2023-01-02T03:07:16.940Z,100614.00
2023-01-02T03:10:09.487Z,100603.13
2023-01-02T03:12:43.678Z,100602.47
2023-01-02T03:15:18.483Z,100604.59
2023-01-02T03:18:04.807Z,100606.47
2023-01-02T03:20:36.858Z,100606.47
2023-01-02T03:23:05.437Z,100618.63
2023-01-02T03:25:33.570Z,100628.44
2023-01-02T03:28:01.808Z,100621.94
2023-01-02T03:30:30.118Z,100631.16
2023-01-02T03:32:58.106Z,100626.78
2023-01-02T03:35:26.792Z,100627.84
2023-01-02T03:37:54.829Z,100623.41
2023-01-02T03:40:24.873Z,100626.78
2023-01-02T03:43:06.131Z,100629.50
2023-01-02T03:45:34.278Z,100625.72
2023-01-02T03:48:16.056Z,100623.63
2023-01-02T03:50:46.937Z,100622.78
2023-01-02T03:53:13.725Z,100612.75
2023-01-02T03:55:41.585Z,100625.94
2023-01-02T03:58:12.140Z,100627.81
2023-01-02T04:00:45.042Z,100626.97
2023-01-02T04:03:18.176Z,100633.88
2023-01-02T04:05:50.859Z,100627.59
2023-01-02T04:08:24.733Z,100616.50
2023-01-02T04:10:57.971Z,100622.78
2023-01-02T04:13:28.978Z,100626.31
2023-01-02T04:15:56.084Z,100629.91
2023-01-02T04:18:26.901Z,100635.94
2023-01-02T04:20:56.493Z,100632.19
2023-01-02T04:23:35.939Z,100639.50
2023-01-02T04:26:05.779Z,100625.69
2023-01-02T04:28:33.243Z,100634.69
2023-01-02T04:31:14.558Z,100627.34
2023-01-02T04:33:45.752Z,100633.84
2023-01-02T04:36:13.615Z,100642.00
2023-01-02T04:38:41.594Z,100625.69
2023-01-02T04:41:08.041Z,100643.25
2023-01-02T04:43:34.433Z,100644.94
2023-01-02T04:46:00.907Z,100639.50
2023-01-02T04:48:27.329Z,100642.22
2023-01-02T04:50:54.090Z,100637.81
2023-01-02T04:53:20.576Z,100644.31
2023-01-02T04:55:46.931Z,100644.53
2023-01-02T04:58:13.284Z,100658.34
2023-01-02T05:00:39.739Z,100663.78
2023-01-02T05:03:06.083Z,100665.84
2023-01-02T05:05:32.852Z,100661.47
2023-01-02T05:07:59.969Z,100659.59
2023-01-02T05:10:26.298Z,100667.75
2023-01-02T05:12:52.622Z,100667.97
2023-01-02T05:15:18.953Z,100678.84
2023-01-02T05:17:45.292Z,100677.19
2023-01-02T05:20:12.619Z,100683.06
2023-01-02T05:22:58.240Z,100677.63
2023-01-02T05:25:25.483Z,100685.97
2023-01-02T05:27:55.287Z,100683.47
2023-01-02T05:30:22.174Z,100689.13
2023-01-02T05:32:51.927Z,100695.38
2023-01-02T05:35:18.250Z,100686.63
2023-01-02T05:37:44.588Z,100691.41
2023-01-02T05:40:11.293Z,100696.25
2023-01-02T05:42:37.780Z,100693.72
2023-01-02T05:45:04.695Z,100696.44
2023-01-02T05:47:31.220Z,100691.81
2023-01-02T05:49:57.536Z,100704.81
2023-01-02T05:52:23.885Z,100700.41
2023-01-02T05:54:50.226Z,100703.13
2023-01-02T05:57:16.744Z,100703.38
2023-01-02T05:59:43.084Z,100702.50
2023-01-02T06:02:09.466Z,100711.09
2023-01-02T06:04:35.901Z,100707.72
2023-01-02T06:07:02.295Z,100724.25
2023-01-02T06:09:28.707Z,100714.44
2023-01-02T06:11:55.110Z,100715.69
2023-01-02T06:14:22.357Z,100728.44
2023-01-02T06:16:48.680Z,100728.22
2023-01-02T06:19:15.068Z,100728.66
2023-01-02T06:21:41.393Z,100736.59
2023-01-02T06:24:07.890Z,100730.34
2023-01-02T06:26:35.446Z,100731.78
2023-01-02T06:29:02.608Z,100735.56
2023-01-02T06:31:29.559Z,100739.13
2023-01-02T06:33:57.101Z,100738.72
2023-01-02T06:36:23.507Z,100736.59
2023-01-02T06:38:49.965Z,100733.25
2023-01-02T06:41:16.952Z,100737.63
2023-01-02T06:43:47.721Z,100734.69
2023-01-02T06:46:15.022Z,100735.56
2023-01-02T06:48:41.703Z,100738.47
2023-01-02T06:51:09.317Z,100728.66
2023-01-02T06:53:36.580Z,100728.22
2023-01-02T06:56:03.481Z,100733.88
2023-01-02T06:58:30.650Z,100735.34
2023-01-02T07:01:01.635Z,100733.66
2023-01-02T07:03:28.012Z,100739.09
2023-01-02T07:05:54.287Z,100738.69
2023-01-02T07:08:20.632Z,100734.09
2023-01-02T07:10:52.697Z,100745.56
2023-01-02T07:13:19.446Z,100749.78
2023-01-02T07:15:45.812Z,100752.72
2023-01-02T07:18:12.159Z,100755.44
2023-01-02T07:20:38.517Z,100756.25
2023-01-02T07:23:04.905Z,100757.50
2023-01-02T07:25:31.699Z,100772.56
2023-01-02T07:27:59.041Z,100772.75
2023-01-02T07:30:25.364Z,100766.31
2023-01-02T07:32:53.158Z,100774.66
2023-01-02T07:35:19.499Z,100775.91
2023-01-02T07:37:45.902Z,100779.66
2023-01-02T07:40:12.363Z,100784.06
2023-01-02T07:42:38.703Z,100786.78
2023-01-02T07:45:05.328Z,100782.59
2023-01-02T07:47:32.052Z,100791.81
2023-01-02T07:49:58.342Z,100789.28
2023-01-02T07:52:24.682Z,100797.66
2023-01-02T07:54:51.027Z,100785.91
2023-01-02T07:57:17.392Z,100789.50
2023-01-02T07:59:46.910Z,100793.06
2023-01-02T08:02:13.623Z,100798.69
2023-01-02T08:04:40.005Z,100799.31
2023-01-02T08:07:06.333Z,100816.47
2023-01-02T08:09:32.735Z,100816.88
2023-01-02T08:11:59.160Z,100823.16
2023-01-02T08:14:25.444Z,100823.78
2023-01-02T08:16:51.798Z,100828.41
2023-01-02T08:19:18.225Z,100840.28
2023-01-02T08:21:44.515Z,100844.47
2023-01-02T08:24:10.870Z,100852.22
2023-01-02T08:26:37.244Z,100864.09
2023-01-02T08:29:09.447Z,100864.28
2023-01-02T08:31:43.656Z,100873.25
2023-01-02T08:34:14.517Z,100882.19
2023-01-02T08:36:41.587Z,100887.00
2023-01-02T08:39:07.958Z,100903.06
2023-01-02T08:41:35.948Z,100899.63
2023-01-02T08:44:02.389Z,100871.09
2023-01-02T08:46:29.083Z,100904.78
2023-01-02T08:48:55.488Z,100912.31
2023-01-02T08:51:21.835Z,100912.53
2023-01-02T08:53:48.212Z,100920.66
2023-01-02T08:56:28.133Z,100933.59
2023-01-02T08:58:56.026Z,100933.38
2023-01-02T09:01:23.617Z,100936.91
2023-01-02T09:03:50.583Z,100944.66
2023-01-02T09:06:21.747Z,100931.47
2023-01-02T09:08:48.860Z,100944.81
2023-01-02T09:11:16.485Z,100951.06
2023-01-02T09:13:43.401Z,100950.25
2023-01-02T09:16:10.514Z,100952.97
2023-01-02T09:18:37.912Z,100962.38
2023-01-02T09:21:04.648Z,100963.00
2023-01-02T09:23:31.753Z,100971.16
2023-01-02T09:26:02.078Z,100971.63
2023-01-02T09:28:28.983Z,100972.47
2023-01-02T09:30:55.387Z,100994.19
2023-01-02T09:33:21.772Z,100992.50
2023-01-02T09:35:48.418Z,100997.88
2023-01-02T09:38:14.951Z,101001.38
2023-01-02T09:40:45.937Z,101006.59
2023-01-02T09:43:12.689Z,101007.47
2023-01-02T09:45:41.334Z,101006.22
2023-01-02T09:48:14.021Z,101006.47
2023-01-02T09:50:40.395Z,101022.75
2023-01-02T09:53:06.721Z,101028.19
2023-01-02T09:55:45.065Z,101029.63
2023-01-02T09:58:23.387Z,101043.19
2023-01-02T10:00:50.432Z,101039.66
2023-01-02T10:03:23.540Z,101044.25
2023-01-02T10:05:49.894Z,101037.75
2023-01-02T10:08:31.837Z,101046.56
2023-01-02T10:11:08.161Z,101050.25
2023-01-02T10:14:17.559Z,101046.06
2023-01-02T10:16:32.568Z,101045.00
2023-01-02T10:19:00.949Z,101052.97
2023-01-02T10:21:30.260Z,101048.38
2023-01-02T10:24:01.904Z,101055.25
2023-01-02T10:26:31.029Z,101050.81
2023-01-02T10:29:16.332Z,101045.88
2023-01-02T10:31:45.084Z,101054.81
2023-01-02T10:34:16.757Z,101053.81
2023-01-02T10:36:44.430Z,101062.97
2023-01-02T10:39:16.325Z,101062.97
2023-01-02T10:41:46.728Z,101056.06
2023-01-02T10:44:13.042Z,101064.22
2023-01-02T10:46:40.980Z,101061.69
2023-01-02T10:49:08.559Z,101063.19
2023-01-02T10:51:36.440Z,101066.09
2023-01-02T10:54:07.333Z,101060.59
2023-01-02T10:56:37.991Z,101072.13
2023-01-02T10:59:16.105Z,101061.25
2023-01-02T11:01:50.263Z,101064.41
2023-01-02T11:04:20.488Z,101071.66
2023-01-02T11:06:56.130Z,101074.56
2023-01-02T11:09:24.383Z,101061.63
2023-01-02T11:11:54.074Z,101058.34
2023-01-02T11:14:31.966Z,101072.94
2023-01-02T11:17:13.585Z,101076.34
2023-01-02T11:19:41.663Z,101073.44
2023-01-02T11:22:09.172Z,101080.25
2023-01-02T11:24:45.075Z,101072.47
2023-01-02T11:27:11.534Z,101062.19
2023-01-02T11:29:37.916Z,101072.44
2023-01-02T11:32:04.538Z,101083.69
2023-01-02T11:34:34.317Z,101079.72
2023-01-02T11:37:18.703Z,101084.81
2023-01-02T11:39:57.203Z,101088.66
2023-01-02T11:42:54.450Z,101089.47
2023-01-02T11:45:21.015Z,101086.88
2023-01-02T11:48:04.580Z,101079.53
2023-01-02T11:50:33.829Z,101081.59
2023-01-02T11:53:12.417Z,101084.44
2023-01-02T11:55:45.385Z,101086.53
2023-01-02T11:58:19.062Z,101090.53
2023-01-02T12:00:48.652Z,101087.69
2023-01-02T12:03:18.763Z,101097.66
2023-01-02T12:06:05.234Z,101088.50
2023-01-02T12:08:36.324Z,101090.41
2023-01-02T12:11:13.904Z,101094.50
2023-01-02T12:13:46.489Z,101098.66
2023-01-02T12:16:18.430Z,101109.97
2023-01-02T12:19:11.039Z,101112.88
2023-01-02T12:21:48.599Z,101114.69
2023-01-02T12:24:18.114Z,101118.22
2023-01-02T12:27:04.653Z,101123.97
2023-01-02T12:29:46.701Z,101140.34
2023-01-02T12:32:37.127Z,101134.94
2023-01-02T12:35:21.079Z,101150.66
2023-01-02T12:37:52.488Z,101147.97
2023-01-02T12:40:29.029Z,101139.31
2023-01-02T12:43:04.530Z,101133.50
2023-01-02T12:45:39.689Z,101130.78
2023-01-02T12:48:35.593Z,101139.59
2023-01-02T12:51:01.939Z,101149.13
2023-01-02T12:53:37.317Z,101150.16
2023-01-02T12:56:09.600Z,101151.94
2023-01-02T12:58:35.996Z,101153.16
2023-01-02T13:01:17.467Z,101156.53
2023-01-02T13:03:52.749Z,101164.53
2023-01-02T13:06:44.797Z,101169.22
2023-01-02T13:09:14.555Z,101164.47
2023-01-02T13:11:57.355Z,101168.88
2023-01-02T13:14:25.666Z,101174.03
2023-01-02T13:16:59.150Z,101163.84
2023-01-02T13:19:33.806Z,101164.41
2023-01-02T13:22:07.305Z,101173.41
2023-01-02T13:24:34.014Z,101173.44
2023-01-02T13:27:00.511Z,101165.59
2023-01-02T13:29:40.445Z,101166.03
2023-01-02T13:32:09.554Z,101173.22
2023-01-02T13:34:40.822Z,101182.22
2023-01-02T13:37:08.937Z,101184.44
2023-01-02T13:39:41.511Z,101196.03
2023-01-02T13:42:29.002Z,101189.59
2023-01-02T13:44:57.733Z,101190.13
2023-01-02T13:47:36.442Z,101180.41
2023-01-02T13:50:18.662Z,101179.28
2023-01-02T13:53:14.489Z,101172.94
2023-01-02T13:55:40.956Z,101181.34
2023-01-02T13:58:17.775Z,101177.28
2023-01-02T14:00:53.414Z,101182.31
2023-01-02T14:03:21.002Z,101205.34
2023-01-02T14:05:58.412Z,101206.44
2023-01-02T14:08:26.617Z,101206.69
2023-01-02T14:11:13.497Z,101199.75
2023-01-02T14:13:45.261Z,101207.53
2023-01-02T14:16:20.371Z,101220.16
2023-01-02T14:19:01.961Z,101215.22
2023-01-02T14:21:32.769Z,101223.53
2023-01-02T14:24:16.933Z,101232.31
2023-01-02T14:26:52.300Z,101236.81
2023-01-02T14:29:19.476Z,101238.31
2023-01-02T14:31:46.445Z,101245.25
2023-01-02T14:34:21.534Z,101245.63
2023-01-02T14:36:49.401Z,101249.34
2023-01-02T14:39:23.579Z,101248.31
2023-01-02T14:42:08.995Z,101263.72
2023-01-02T14:44:43.479Z,101261.91
2023-01-02T14:47:12.386Z,101252.09
2023-01-02T14:49:39.285Z,101249.06
2023-01-02T14:52:07.516Z,101248.25
2023-01-02T14:54:42.441Z,101258.44
2023-01-02T14:57:22.241Z,101254.28
2023-01-02T14:59:49.716Z,101256.81
2023-01-02T15:02:17.732Z,101270.53
2023-01-02T15:04:47.414Z,101273.44
2023-01-02T15:07:34.102Z,101264.88
2023-01-02T15:10:11.677Z,101280.47
2023-01-02T15:13:05.019Z,101283.00
2023-01-02T15:15:37.442Z,101291.00
2023-01-02T15:18:05.877Z,101292.53
2023-01-02T15:20:34.227Z,101299.41
2023-01-02T15:23:01.131Z,101296.38
2023-01-02T15:25:32.478Z,101309.59
2023-01-02T15:27:58.964Z,101311.47
2023-01-02T15:30:34.461Z,101317.75
2023-01-02T15:33:00.837Z,101326.91
2023-01-02T15:35:28.760Z,101333.63
2023-01-02T15:37:55.227Z,101343.94
2023-01-02T15:40:21.651Z,101340.72
2023-01-02T15:43:06.908Z,101351.03
2023-01-02T15:45:33.697Z,101358.34
2023-01-02T15:48:00.392Z,101358.84
2023-01-02T15:50:28.305Z,101359.84
2023-01-02T15:52:59.234Z,101360.47
2023-01-02T15:55:26.677Z,101363.88
2023-01-02T15:57:54.011Z,101364.16
2023-01-02T16:00:34.425Z,101366.03
2023-01-02T16:03:01.011Z,101371.25
2023-01-02T16:05:28.316Z,101381.63
2023-01-02T16:07:56.300Z,101373.16
2023-01-02T16:10:23.998Z,101380.59
2023-01-02T16:12:52.194Z,101384.34
2023-01-02T16:15:23.986Z,101396.03
2023-01-02T16:17:50.795Z,101397.19
2023-01-02T16:20:19.100Z,101395.16
2023-01-02T16:22:57.509Z,101412.31
2023-01-02T16:25:28.863Z,101416.56
2023-01-02T16:27:58.380Z,101420.31
2023-01-02T16:30:33.198Z,101418.28
2023-01-02T16:33:19.032Z,101428.44
2023-01-02T16:35:55.285Z,101434.84
2023-01-02T16:38:27.125Z,101442.63
2023-01-02T16:41:02.949Z,101443.44
2023-01-02T16:43:30.611Z,101447.00
2023-01-02T16:45:57.697Z,101445.16
2023-01-02T16:48:25.375Z,101449.75
2023-01-02T16:50:53.260Z,101460.25
2023-01-02T16:53:23.597Z,101460.59
2023-01-02T16:55:51.646Z,101464.31
2023-01-02T16:58:19.434Z,101471.59
2023-01-02T17:00:46.107Z,101473.13
2023-01-02T17:03:17.532Z,101473.63
2023-01-02T17:05:45.844Z,101478.50
2023-01-02T17:08:12.221Z,101482.56
2023-01-02T17:10:38.661Z,101481.56
2023-01-02T17:13:04.998Z,101486.97
2023-01-02T17:15:32.297Z,101494.94
2023-01-02T17:17:59.315Z,101507.28
2023-01-02T17:20:26.923Z,101500.84
2023-01-02T17:22:53.286Z,101510.31
2023-01-02T17:25:19.891Z,101506.91
2023-01-02T17:27:46.338Z,101502.88
2023-01-02T17:30:13.705Z,101516.06
2023-01-02T17:32:40.589Z,101523.53
2023-01-02T17:35:07.529Z,101530.47
2023-01-02T17:37:33.940Z,101532.66
2023-01-02T17:40:00.411Z,101537.41
2023-01-02T17:42:26.841Z,101541.59
2023-01-02T17:44:53.246Z,101543.13
2023-01-02T17:50:06.285Z,101554.28
2023-01-02T17:52:32.634Z,101564.13
2023-01-02T17:54:59.093Z,101570.66
2023-01-02T17:57:25.628Z,101572.72
2023-01-02T17:59:52.077Z,101568.50
2023-01-02T18:02:19.258Z,101567.47
2023-01-02T18:04:51.120Z,101559.88
2023-01-02T18:07:21.093Z,101563.09
2023-01-02T18:10:08.647Z,101575.44
2023-01-02T18:12:35.676Z,101587.97
2023-01-02T18:15:09.176Z,101594.53
2023-01-02T18:17:35.539Z,101592.81
2023-01-02T18:20:02.483Z,101608.16
2023-01-02T18:22:30.331Z,101614.06
2023-01-02T18:24:56.753Z,101614.38
2023-01-02T18:27:27.636Z,101615.03
2023-01-02T18:29:59.052Z,101622.31
2023-01-02T18:32:32.537Z,101619.47
2023-01-02T18:35:00.487Z,101624.34
2023-01-02T18:37:30.434Z,101628.53
2023-01-02T18:39:57.088Z,101632.09
2023-01-02T18:42:26.556Z,101629.88
2023-01-02T18:44:54.363Z,101632.44
2023-01-02T18:47:28.563Z,101630.94
2023-01-02T18:49:57.687Z,101641.75
2023-01-02T18:52:28.784Z,101644.28
2023-01-02T18:55:00.178Z,101655.09
2023-01-02T18:57:29.328Z,101663.06
2023-01-02T18:59:59.081Z,101668.13
2023-01-02T19:02:25.719Z,101667.66
2023-01-02T19:04:52.381Z,101667.31
2023-01-02T19:07:18.746Z,101675.47
2023-01-02T19:09:45.105Z,101684.06
2023-01-02T19:12:32.034Z,101686.44
2023-01-02T19:15:00.005Z,101682.00
2023-01-02T19:17:28.421Z,101694.22
2023-01-02T19:19:55.547Z,101694.88
2023-01-02T19:22:23.213Z,101699.28
2023-01-02T19:24:49.896Z,101695.91
2023-01-02T19:27:22.196Z,101701.16
2023-01-02T19:29:48.869Z,101703.06
2023-01-02T19:32:28.874Z,101707.50
2023-01-02T19:34:59.951Z,101705.28
2023-01-02T19:37:40.181Z,101724.97
2023-01-02T19:40:19.500Z,101725.47
2023-01-02T19:42:50.285Z,101736.66
2023-01-02T19:45:19.015Z,101730.94
2023-01-02T19:47:45.664Z,101743.78
2023-01-02T19:50:14.315Z,101747.19
2023-01-02T19:52:40.740Z,101740.38
2023-01-02T19:55:08.326Z,101750.81
2023-01-02T19:57:35.097Z,101752.16
2023-01-02T20:00:06.988Z,101747.38
2023-01-02T20:02:33.557Z,101749.06
2023-01-02T20:05:03.322Z,101756.69
2023-01-02T20:07:29.871Z,101762.28
2023-01-02T20:09:56.519Z,101748.81
2023-01-02T20:12:40.090Z,101759.78
2023-01-02T20:15:10.631Z,101764.34
2023-01-02T20:17:37.760Z,101762.59
2023-01-02T20:20:05.258Z,101764.22
2023-01-02T20:22:31.884Z,101770.25
2023-01-02T20:24:58.538Z,101772.16
2023-01-02T20:27:25.287Z,101769.44
2023-01-02T20:29:51.862Z,101772.47
2023-01-02T20:32:21.899Z,101783.56
2023-01-02T20:34:48.218Z,101779.56
2023-01-02T20:37:14.594Z,101791.53
2023-01-02T20:39:41.128Z,101798.09
2023-01-02T20:42:12.953Z,101792.69
2023-01-02T20:44:40.279Z,101798.78
2023-01-02T20:47:09.760Z,101804.88
2023-01-02T20:49:36.129Z,101810.28
2023-01-02T20:52:03.097Z,101806.88
2023-01-02T20:54:29.958Z,101814.16
2023-01-02T20:56:56.760Z,101825.41
2023-01-02T20:59:23.470Z,101828.28
2023-01-02T21:01:50.592Z,101838.78
2023-01-02T21:04:22.553Z,101835.06
2023-01-02T21:06:51.149Z,101836.75
2023-01-02T21:09:17.568Z,101835.91
2023-01-02T21:11:43.972Z,101849.72
2023-01-02T21:14:10.368Z,101848.25
2023-01-02T21:16:36.719Z,101856.94
2023-01-02T21:19:03.233Z,101857.75
2023-01-02T21:21:30.721Z,101856.63
2023-01-02T21:23:57.242Z,101848.97
2023-01-02T21:26:23.672Z,101862.06
2023-01-02T21:28:50.400Z,101867.88
2023-01-02T21:31:18.031Z,101855.66
2023-01-02T21:33:44.869Z,101866.16
2023-01-02T21:36:11.254Z,101869.19
2023-01-02T21:38:38.012Z,101872.09
2023-01-02T21:41:23.111Z,101880.91
2023-01-02T21:43:50.684Z,101879.69
2023-01-02T21:46:17.220Z,101882.06
2023-01-02T21:48:44.532Z,101888.63
2023-01-02T21:51:10.896Z,101886.91
2023-01-02T21:53:37.319Z,101890.06
2023-01-02T21:56:03.730Z,101892.09
2023-01-02T21:58:30.086Z,101898.59
2023-01-02T22:00:56.493Z,101890.19
2023-01-02T22:03:22.998Z,101898.97
2023-01-02T22:05:49.477Z,101897.28
2023-01-02T22:08:15.893Z,101898.28
2023-01-02T22:10:42.257Z,101902.38
2023-01-02T22:13:08.603Z,101901.78
2023-01-02T22:15:35.010Z,101911.41
2023-01-02T22:18:01.331Z,101899.22
2023-01-02T22:20:27.878Z,101908.56
2023-01-02T22:22:54.328Z,101911.59
2023-01-02T22:25:20.715Z,101909.47
2023-01-02T22:27:47.075Z,101910.47
2023-01-02T22:30:31.061Z,101901.97
2023-01-02T22:33:00.304Z,101906.88
2023-01-02T22:35:27.259Z,101912.19
2023-01-02T22:37:53.788Z,101921.38
2023-01-02T22:40:20.427Z,101926.28
2023-01-02T22:43:05.306Z,101928.84
2023-01-02T22:45:39.568Z,101934.25
2023-01-02T22:48:07.530Z,101942.19
2023-01-02T22:50:44.781Z,101954.16
2023-01-02T22:53:21.649Z,101956.41
2023-01-02T22:55:48.380Z,101963.72
2023-01-02T22:58:14.783Z,101959.44
2023-01-02T23:00:41.290Z,101967.72
2023-01-02T23:03:12.430Z,101962.31
2023-01-02T23:05:38.840Z,101958.59
2023-01-02T23:08:05.400Z,101960.59
2023-01-02T23:10:31.794Z,101963.72
2023-01-02T23:12:58.247Z,101957.88
2023-01-02T23:15:24.589Z,101962.31
2023-01-02T23:18:09.606Z,101967.75
2023-01-02T23:20:35.997Z,101963.50
2023-01-02T23:23:02.357Z,101962.03
2023-01-02T23:25:28.664Z,101963.88
2023-01-02T23:27:55.061Z,101962.91
2023-01-02T23:30:21.493Z,101962.91
2023-01-02T23:32:47.792Z,101971.69
2023-01-02T23:35:14.119Z,101980.66
2023-01-02T23:37:40.493Z,101980.09
2023-01-02T23:40:07.291Z,101983.13
2023-01-02T23:42:33.627Z,101989.50
2023-01-02T23:45:00.029Z,101983.84
2023-01-02T23:47:26.355Z,101984.56
2023-01-02T23:49:52.647Z,101987.28
2023-01-02T23:52:19.019Z,101990.28
2023-01-02T23:54:45.335Z,101991.00
2023-01-02T23:57:11.681Z,102003.34
2023-01-02T23:59:38.024Z,101994.38
